createdAt,value
2023-02-22T00:00:43.193Z,21.52
2023-02-22T00:03:11.123Z,22.50
2023-02-22T00:05:41.457Z,21.15
2023-02-22T00:08:11.554Z,18.15
2023-02-22T00:10:38.746Z,29.73
2023-02-22T00:13:07.360Z,22.38
2023-02-22T00:15:35.148Z,22.35
2023-02-22T00:18:02.884Z,30.73
2023-02-22T00:20:30.443Z,20.83
2023-02-22T00:22:57.707Z,25.35
2023-02-22T00:25:25.653Z,30.30
2023-02-22T00:27:53.204Z,21.42
2023-02-22T00:30:26.725Z,26.98
2023-02-22T00:32:55.845Z,22.30
2023-02-22T00:35:24.075Z,32.63
2023-02-22T00:37:51.864Z,29.45
2023-02-22T00:40:21.486Z,26.90
2023-02-22T00:42:48.810Z,28.23
2023-02-22T00:45:20.333Z,29.58
2023-02-22T00:47:47.543Z,27.63
2023-02-22T00:50:15.715Z,27.45
2023-02-22T00:52:43.061Z,21.35
2023-02-22T00:55:11.833Z,26.48
2023-02-22T00:57:40.309Z,26.92
2023-02-22T01:00:14.966Z,26.15
2023-02-22T01:02:43.084Z,29.25
2023-02-22T01:05:13.929Z,25.63
2023-02-22T01:07:41.528Z,33.03
2023-02-22T01:10:09.339Z,26.70
2023-02-22T01:12:38.334Z,28.38
2023-02-22T01:15:06.337Z,27.60
2023-02-22T01:17:35.014Z,25.17
2023-02-22T01:20:02.173Z,25.90
2023-02-22T01:22:29.309Z,25.05
2023-02-22T01:24:56.447Z,24.30
2023-02-22T01:27:23.590Z,26.60
2023-02-22T01:29:50.693Z,22.23
2023-02-22T01:32:17.870Z,27.02
2023-02-22T01:34:45.032Z,20.05
2023-02-22T01:37:12.388Z,28.80
2023-02-22T01:39:39.763Z,25.88
2023-02-22T01:42:06.941Z,29.25
2023-02-22T01:44:36.344Z,24.63
2023-02-22T01:47:04.612Z,21.95
2023-02-22T01:49:48.890Z,24.00
2023-02-22T01:52:20.905Z,26.60
2023-02-22T01:54:56.844Z,27.40
2023-02-22T01:57:25.361Z,37.67
2023-02-22T01:59:54.252Z,30.50
2023-02-22T02:02:25.253Z,24.08
2023-02-22T02:04:53.281Z,27.40
2023-02-22T02:07:22.261Z,25.85
2023-02-22T02:09:53.974Z,23.92
2023-02-22T02:12:24.062Z,27.70
2023-02-22T02:14:51.191Z,27.73
2023-02-22T02:17:20.594Z,24.55
2023-02-22T02:20:12.852Z,26.35
2023-02-22T02:23:00.925Z,24.65
2023-02-22T02:25:48.782Z,27.60
2023-02-22T02:28:34.239Z,22.77
2023-02-22T02:31:04.548Z,28.23
2023-02-22T02:33:52.790Z,29.15
2023-02-22T02:36:25.185Z,26.73
2023-02-22T02:38:58.477Z,26.58
2023-02-22T02:41:31.592Z,27.25
2023-02-22T02:44:04.978Z,20.60
2023-02-22T02:46:32.033Z,21.52
2023-02-22T02:49:05.057Z,28.10
2023-02-22T02:51:34.819Z,29.00
2023-02-22T02:54:03.546Z,29.55
2023-02-22T02:56:31.258Z,26.75
2023-02-22T02:58:58.365Z,28.17
2023-02-22T03:01:44.320Z,28.35
2023-02-22T03:04:22.510Z,30.63
2023-02-22T03:07:05.420Z,28.58
2023-02-22T03:09:42.079Z,28.08
2023-02-22T03:12:24.285Z,37.00
2023-02-22T03:15:09.866Z,34.50
2023-02-22T03:17:45.343Z,27.88
2023-02-22T03:20:20.970Z,21.88
2023-02-22T03:22:58.141Z,28.33
2023-02-22T03:25:28.372Z,30.45
2023-02-22T03:28:02.519Z,28.73
2023-02-22T03:30:36.101Z,25.30
2023-02-22T03:33:09.177Z,29.75
2023-02-22T03:35:38.454Z,28.30
2023-02-22T03:38:07.796Z,23.10
2023-02-22T03:40:37.368Z,30.52
2023-02-22T03:43:08.110Z,25.30
2023-02-22T03:45:36.910Z,31.27
2023-02-22T03:48:07.889Z,31.23
2023-02-22T03:50:37.383Z,34.78
2023-02-22T03:53:04.950Z,28.60
2023-02-22T03:55:32.248Z,30.08
2023-02-22T03:58:00.213Z,29.83
2023-02-22T04:00:30.673Z,33.75
2023-02-22T04:02:57.962Z,26.33
2023-02-22T04:05:26.024Z,30.88
2023-02-22T04:07:54.176Z,30.02
2023-02-22T04:10:21.421Z,29.95
2023-02-22T04:12:48.892Z,26.75
2023-02-22T04:15:17.729Z,26.23
2023-02-22T04:17:45.476Z,25.17
2023-02-22T04:20:13.747Z,34.55
2023-02-22T04:22:42.223Z,26.50
2023-02-22T04:25:09.595Z,35.38
2023-02-22T04:27:36.980Z,27.42
2023-02-22T04:30:04.471Z,30.83
2023-02-22T04:32:31.556Z,33.28
2023-02-22T04:34:58.655Z,26.10
2023-02-22T04:37:27.380Z,34.25
2023-02-22T04:39:54.588Z,29.02
2023-02-22T04:42:21.863Z,24.67
2023-02-22T04:44:49.056Z,28.45
2023-02-22T04:47:16.459Z,28.77
2023-02-22T04:49:43.917Z,31.83
2023-02-22T04:52:11.116Z,34.35
2023-02-22T04:54:39.016Z,37.15
2023-02-22T04:57:06.205Z,29.30
2023-02-22T04:59:33.607Z,34.53
2023-02-22T05:02:01.158Z,28.50
2023-02-22T05:04:28.305Z,36.10
2023-02-22T05:06:55.589Z,36.03
2023-02-22T05:09:22.723Z,29.80
2023-02-22T05:11:49.829Z,29.27
2023-02-22T05:14:19.016Z,27.35
2023-02-22T05:16:46.233Z,30.83
2023-02-22T05:19:13.350Z,38.63
2023-02-22T05:21:40.711Z,34.05
2023-02-22T05:24:08.063Z,29.27
2023-02-22T05:26:39.640Z,34.78
2023-02-22T05:29:07.114Z,29.20
2023-02-22T05:31:34.614Z,32.53
2023-02-22T05:34:01.748Z,28.63
2023-02-22T05:36:28.824Z,29.38
2023-02-22T05:38:56.950Z,31.60
2023-02-22T05:41:24.140Z,31.17
2023-02-22T05:43:51.526Z,31.55
2023-02-22T05:46:19.768Z,28.05
2023-02-22T05:48:46.870Z,29.98
2023-02-22T05:51:14.094Z,37.13
2023-02-22T05:53:42.818Z,34.13
2023-02-22T05:56:11.444Z,30.77
2023-02-22T05:58:38.706Z,34.42
2023-02-22T06:01:05.895Z,31.67
2023-02-22T06:03:33.070Z,34.28
2023-02-22T06:06:00.273Z,41.78
2023-02-22T06:08:27.437Z,38.25
2023-02-22T06:10:55.557Z,33.80
2023-02-22T06:13:22.705Z,45.70
2023-02-22T06:15:49.871Z,39.30
2023-02-22T06:18:17.024Z,37.97
2023-02-22T06:20:44.616Z,38.30
2023-02-22T06:23:11.856Z,44.50
2023-02-22T06:25:38.994Z,36.35
2023-02-22T06:28:07.358Z,39.50
2023-02-22T06:30:34.517Z,35.33
2023-02-22T06:33:01.693Z,32.90
2023-02-22T06:35:28.876Z,39.97
2023-02-22T06:37:55.988Z,31.40
2023-02-22T06:40:23.165Z,35.85
2023-02-22T06:42:51.459Z,31.98
2023-02-22T06:45:18.886Z,41.05
2023-02-22T06:47:46.905Z,33.15
2023-02-22T06:50:28.834Z,38.92
2023-02-22T06:52:56.713Z,31.90
2023-02-22T06:55:33.833Z,32.33
2023-02-22T06:58:01.484Z,44.28
2023-02-22T07:00:30.208Z,35.33
2023-02-22T07:02:57.933Z,35.30
2023-02-22T07:05:25.574Z,31.90
2023-02-22T07:07:53.562Z,38.22
2023-02-22T07:10:25.868Z,37.42
2023-02-22T07:12:53.546Z,35.28
2023-02-22T07:15:23.619Z,35.55
2023-02-22T07:17:51.211Z,29.27
2023-02-22T07:20:20.833Z,31.40
2023-02-22T07:22:48.697Z,40.90
2023-02-22T07:25:15.824Z,30.65
2023-02-22T07:27:43.664Z,29.25
2023-02-22T07:30:18.803Z,30.10
2023-02-22T07:32:48.669Z,32.88
2023-02-22T07:35:17.252Z,34.85
2023-02-22T07:37:44.721Z,31.42
2023-02-22T07:40:12.894Z,53.80
2023-02-22T07:42:57.274Z,36.33
2023-02-22T07:45:25.656Z,38.00
2023-02-22T07:47:52.836Z,37.97
2023-02-22T07:50:22.848Z,27.73
2023-02-22T07:52:51.277Z,29.30
2023-02-22T07:55:21.144Z,45.17
2023-02-22T07:57:49.064Z,24.48
2023-02-22T08:00:17.390Z,32.25
2023-02-22T08:02:44.715Z,28.95
2023-02-22T08:05:13.048Z,23.42
2023-02-22T08:07:40.312Z,35.70
2023-02-22T08:10:08.201Z,25.60
2023-02-22T08:12:37.113Z,24.25
2023-02-22T08:15:09.077Z,28.35
2023-02-22T08:17:36.218Z,36.83
2023-02-22T08:20:03.398Z,24.05
2023-02-22T08:22:30.846Z,25.58
2023-02-22T08:24:58.152Z,30.73
2023-02-22T08:27:28.990Z,26.65
2023-02-22T08:29:56.233Z,24.30
2023-02-22T08:32:24.229Z,27.60
2023-02-22T08:34:52.125Z,26.45
2023-02-22T08:37:19.718Z,33.67
2023-02-22T08:39:47.322Z,26.52
2023-02-22T08:42:16.767Z,27.10
2023-02-22T08:44:44.072Z,38.35
2023-02-22T08:47:11.210Z,29.40
2023-02-22T08:49:38.372Z,30.17
2023-02-22T08:52:05.961Z,36.40
2023-02-22T08:54:33.066Z,34.50
2023-02-22T08:57:00.464Z,33.65
2023-02-22T08:59:27.606Z,32.70
2023-02-22T09:01:55.416Z,36.08
2023-02-22T09:04:22.556Z,34.65
2023-02-22T09:06:51.787Z,23.88
2023-02-22T09:09:21.323Z,25.40
2023-02-22T09:11:53.205Z,21.67
2023-02-22T09:14:20.425Z,17.75
2023-02-22T09:16:47.657Z,19.73
2023-02-22T09:19:14.826Z,23.08
2023-02-22T09:21:44.584Z,25.23
2023-02-22T09:24:12.112Z,18.83
2023-02-22T09:26:39.686Z,20.30
2023-02-22T09:29:13.337Z,21.77
2023-02-22T09:31:41.854Z,27.20
2023-02-22T09:34:13.971Z,16.90
2023-02-22T09:36:46.654Z,18.42
2023-02-22T09:39:15.354Z,16.88
2023-02-22T09:41:55.204Z,18.42
2023-02-22T09:44:28.888Z,17.52
2023-02-22T09:46:56.736Z,16.13
2023-02-22T09:49:38.342Z,16.38
2023-02-22T09:52:09.308Z,17.65
2023-02-22T09:55:04.811Z,23.90
2023-02-22T09:57:35.467Z,20.17
2023-02-22T10:00:23.300Z,19.05
2023-02-22T10:02:59.871Z,25.50
2023-02-22T10:05:31.019Z,17.15
2023-02-22T10:08:08.726Z,17.90
2023-02-22T10:10:39.219Z,21.67
2023-02-22T10:15:52.232Z,21.38
2023-02-22T10:18:39.037Z,18.50
2023-02-22T10:21:16.752Z,35.97
2023-02-22T10:24:02.217Z,19.13
2023-02-22T10:26:31.629Z,15.77
2023-02-22T10:29:01.727Z,23.42
2023-02-22T10:31:36.069Z,22.52
2023-02-22T10:34:12.549Z,18.25
2023-02-22T10:36:39.763Z,19.58
2023-02-22T10:39:09.008Z,18.20
2023-02-22T10:41:38.177Z,20.23
2023-02-22T10:44:05.365Z,19.35
2023-02-22T10:46:33.846Z,37.70
2023-02-22T10:49:03.401Z,23.65
2023-02-22T10:51:30.791Z,22.30
2023-02-22T10:54:27.391Z,16.05
2023-02-22T10:56:56.043Z,21.05
2023-02-22T10:59:33.633Z,22.20
2023-02-22T11:02:02.227Z,25.85
2023-02-22T11:04:45.053Z,14.63
2023-02-22T11:07:27.152Z,22.60
2023-02-22T11:10:02.792Z,19.05
2023-02-22T11:12:34.009Z,27.52
2023-02-22T11:15:19.359Z,22.90
2023-02-22T11:17:47.794Z,55.17
2023-02-22T11:20:26.446Z,25.60
2023-02-22T11:22:58.507Z,17.15
2023-02-22T11:25:27.753Z,22.85
2023-02-22T11:27:56.010Z,30.05
2023-02-22T11:30:27.913Z,22.50
2023-02-22T11:32:57.262Z,18.83
2023-02-22T11:35:30.621Z,19.08
2023-02-22T11:38:11.439Z,22.45
2023-02-22T11:40:40.196Z,19.83
2023-02-22T11:43:12.219Z,15.18
2023-02-22T11:45:44.274Z,22.70
2023-02-22T11:48:21.003Z,16.42
2023-02-22T11:51:06.682Z,17.85
2023-02-22T11:53:45.366Z,17.08
2023-02-22T11:56:13.959Z,20.38
2023-02-22T11:58:45.707Z,13.73
2023-02-22T12:01:19.242Z,15.95
2023-02-22T12:04:10.503Z,21.58
2023-02-22T12:06:43.947Z,19.65
2023-02-22T12:09:17.837Z,16.77
2023-02-22T12:11:50.875Z,18.23
2023-02-22T12:14:24.029Z,17.40
2023-02-22T12:17:10.353Z,21.15
2023-02-22T12:19:43.268Z,16.35
2023-02-22T12:22:10.432Z,22.08
2023-02-22T12:24:57.946Z,25.42
2023-02-22T12:27:51.425Z,21.75
2023-02-22T12:30:25.447Z,17.30
2023-02-22T12:32:59.267Z,16.20
2023-02-22T12:35:35.946Z,19.45
2023-02-22T12:38:25.281Z,26.33
2023-02-22T12:41:04.234Z,21.60
2023-02-22T12:43:39.093Z,18.77
2023-02-22T12:46:10.696Z,20.88
2023-02-22T12:48:47.347Z,16.42
2023-02-22T12:51:17.913Z,18.75
2023-02-22T12:53:50.763Z,29.10
2023-02-22T12:56:24.670Z,23.75
2023-02-22T12:58:58.899Z,19.13
2023-02-22T13:01:30.028Z,22.88
2023-02-22T13:03:57.362Z,26.10
2023-02-22T13:06:34.111Z,18.80
2023-02-22T13:09:01.417Z,21.05
2023-02-22T13:11:53.630Z,17.27
2023-02-22T13:14:23.893Z,16.92
2023-02-22T13:17:02.323Z,20.88
2023-02-22T13:19:41.320Z,16.77
2023-02-22T13:22:14.082Z,16.83
2023-02-22T13:24:53.310Z,13.52
2023-02-22T13:27:26.048Z,17.90
2023-02-22T13:29:58.725Z,17.08
2023-02-22T13:32:34.270Z,19.58
2023-02-22T13:35:10.742Z,15.90
2023-02-22T13:37:46.265Z,16.20
2023-02-22T13:40:32.366Z,15.82
2023-02-22T13:43:09.970Z,19.58
2023-02-22T13:45:45.935Z,17.20
2023-02-22T13:48:31.578Z,16.83
2023-02-22T13:51:17.805Z,20.05
2023-02-22T13:53:45.013Z,20.95
2023-02-22T13:56:14.684Z,15.15
2023-02-22T13:59:01.758Z,18.08
2023-02-22T14:01:38.886Z,22.80
2023-02-22T14:04:21.480Z,18.88
2023-02-22T14:06:48.601Z,22.05
2023-02-22T14:09:20.204Z,14.40
2023-02-22T14:12:03.597Z,16.02
2023-02-22T14:14:35.456Z,16.83
2023-02-22T14:17:56.170Z,16.85
2023-02-22T14:20:20.094Z,25.00
2023-02-22T14:23:10.237Z,20.23
2023-02-22T14:25:52.213Z,23.25
2023-02-22T14:28:40.307Z,26.00
2023-02-22T14:31:17.411Z,15.75
2023-02-22T14:34:01.338Z,11.75
2023-02-22T14:36:37.729Z,17.33
2023-02-22T14:39:13.136Z,19.70
2023-02-22T14:41:43.539Z,19.42
2023-02-22T14:44:12.967Z,14.50
2023-02-22T14:46:42.059Z,22.27
2023-02-22T14:49:16.735Z,17.00
2023-02-22T14:51:45.523Z,21.30
2023-02-22T14:54:28.013Z,16.48
2023-02-22T14:57:10.346Z,19.13
2023-02-22T14:59:45.741Z,14.73
2023-02-22T15:02:14.970Z,16.80
2023-02-22T15:04:44.972Z,12.55
2023-02-22T15:07:29.115Z,18.83
2023-02-22T15:10:26.027Z,15.93
2023-02-22T15:13:09.569Z,17.52
2023-02-22T15:15:38.830Z,20.83
2023-02-22T15:18:09.627Z,25.45
2023-02-22T15:20:38.386Z,19.33
2023-02-22T15:23:05.773Z,22.83
2023-02-22T15:25:33.016Z,24.02
2023-02-22T15:28:04.740Z,20.30
2023-02-22T15:30:34.353Z,24.75
2023-02-22T15:33:12.452Z,22.50
2023-02-22T15:35:39.616Z,20.75
2023-02-22T15:38:12.861Z,17.73
2023-02-22T15:40:42.948Z,19.38
2023-02-22T15:43:17.763Z,21.45
2023-02-22T15:45:45.943Z,23.58
2023-02-22T15:48:14.528Z,22.35
2023-02-22T15:50:58.917Z,18.63
2023-02-22T15:53:31.005Z,18.83
2023-02-22T15:55:59.590Z,22.33
2023-02-22T15:58:30.010Z,25.63
2023-02-22T16:01:02.928Z,24.77
2023-02-22T16:03:38.707Z,24.98
2023-02-22T16:06:10.220Z,25.23
2023-02-22T16:08:54.103Z,24.30
2023-02-22T16:11:30.368Z,34.78
2023-02-22T16:14:00.394Z,34.85
2023-02-22T16:16:43.239Z,46.53
2023-02-22T16:19:24.985Z,45.38
2023-02-22T16:21:53.530Z,45.80
2023-02-22T16:24:28.346Z,43.35
2023-02-22T16:27:15.136Z,36.85
2023-02-22T16:29:42.767Z,33.72
2023-02-22T16:32:10.052Z,35.65
2023-02-22T16:34:37.376Z,32.33
2023-02-22T16:37:04.589Z,33.83
2023-02-22T16:39:32.494Z,34.83
2023-02-22T16:42:01.333Z,29.65
2023-02-22T16:44:28.868Z,35.83
2023-02-22T16:46:59.920Z,35.05
2023-02-22T16:49:27.400Z,38.53
2023-02-22T16:51:55.780Z,33.72
2023-02-22T16:54:29.641Z,31.15
2023-02-22T16:57:00.279Z,36.80
2023-02-22T16:59:27.416Z,37.38
2023-02-22T17:01:58.648Z,39.88
2023-02-22T17:04:28.760Z,41.55
2023-02-22T17:06:58.908Z,42.40
2023-02-22T17:09:26.384Z,49.75
2023-02-22T17:11:53.797Z,49.17
2023-02-22T17:14:23.392Z,49.58
2023-02-22T17:16:51.220Z,47.07
2023-02-22T17:19:19.649Z,34.85
2023-02-22T17:21:46.838Z,35.97
2023-02-22T17:24:14.510Z,38.22
2023-02-22T17:26:42.081Z,32.13
2023-02-22T17:29:09.384Z,31.20
2023-02-22T17:31:36.650Z,30.80
2023-02-22T17:34:04.792Z,28.58
2023-02-22T17:36:32.684Z,29.13
2023-02-22T17:39:00.681Z,35.40
2023-02-22T17:41:27.801Z,31.52
2023-02-22T17:43:57.957Z,25.30
2023-02-22T17:46:25.636Z,25.45
2023-02-22T17:48:55.835Z,32.92
2023-02-22T17:51:24.329Z,23.05
2023-02-22T17:53:51.472Z,22.77
2023-02-22T17:56:19.724Z,21.73
2023-02-22T17:58:55.234Z,26.95
2023-02-22T18:01:26.404Z,25.40
2023-02-22T18:03:57.828Z,27.77
2023-02-22T18:06:27.308Z,32.30
2023-02-22T18:08:56.674Z,31.17
2023-02-22T18:11:26.575Z,26.30
2023-02-22T18:13:57.735Z,29.50
2023-02-22T18:16:28.136Z,25.55
2023-02-22T18:18:56.735Z,26.05
2023-02-22T18:21:24.411Z,23.88
2023-02-22T18:23:58.165Z,26.13
2023-02-22T18:26:28.985Z,29.80
2023-02-22T18:28:57.887Z,23.77
2023-02-22T18:31:25.875Z,31.50
2023-02-22T18:33:53.603Z,27.55
2023-02-22T18:36:24.760Z,33.33
2023-02-22T18:38:55.828Z,30.35
2023-02-22T18:41:27.065Z,27.75
2023-02-22T18:43:55.566Z,27.77
2023-02-22T18:46:23.759Z,30.17
2023-02-22T18:48:53.046Z,29.77
2023-02-22T18:51:20.241Z,32.03
2023-02-22T18:53:50.249Z,27.20
2023-02-22T18:56:22.113Z,31.83
2023-02-22T18:58:53.407Z,26.25
2023-02-22T19:01:22.155Z,31.80
2023-02-22T19:03:49.795Z,32.15
2023-02-22T19:06:17.873Z,29.35
2023-02-22T19:08:46.136Z,27.35
2023-02-22T19:11:20.618Z,29.10
2023-02-22T19:13:48.623Z,32.33
2023-02-22T19:16:17.181Z,35.15
2023-02-22T19:18:44.708Z,30.45
2023-02-22T19:21:15.706Z,38.25
2023-02-22T19:23:46.148Z,32.70
2023-02-22T19:26:14.714Z,27.38
2023-02-22T19:28:41.935Z,26.88
2023-02-22T19:31:12.454Z,31.92
2023-02-22T19:33:39.837Z,30.95
2023-02-22T19:36:07.448Z,30.55
2023-02-22T19:38:34.937Z,31.20
2023-02-22T19:41:10.086Z,33.58
2023-02-22T19:43:37.719Z,30.58
2023-02-22T19:46:08.370Z,30.88
2023-02-22T19:51:03.572Z,27.63
2023-02-22T19:53:30.930Z,32.28
2023-02-22T19:55:58.354Z,31.17
2023-02-22T19:58:25.797Z,30.35
2023-02-22T20:00:53.234Z,26.65
2023-02-22T20:03:24.721Z,24.92
2023-02-22T20:05:53.321Z,26.40
2023-02-22T20:08:20.658Z,25.50
2023-02-22T20:10:48.037Z,27.73
2023-02-22T20:13:17.289Z,23.15
2023-02-22T20:15:45.420Z,25.20
2023-02-22T20:18:12.521Z,22.27
2023-02-22T20:20:40.720Z,30.02
2023-02-22T20:23:09.413Z,27.98
2023-02-22T20:25:38.048Z,24.55
2023-02-22T20:28:07.671Z,27.38
2023-02-22T20:30:37.385Z,32.07
2023-02-22T20:33:05.184Z,25.00
2023-02-22T20:35:33.943Z,27.13
2023-02-22T20:38:01.703Z,27.38
2023-02-22T20:40:28.889Z,31.92
2023-02-22T20:42:56.541Z,29.27
2023-02-22T20:45:23.978Z,34.90
2023-02-22T20:47:51.218Z,29.10
2023-02-22T20:50:18.427Z,28.30
2023-02-22T20:52:45.621Z,28.08
2023-02-22T20:55:13.668Z,29.92
2023-02-22T20:57:40.764Z,29.10
2023-02-22T21:00:10.506Z,30.55
2023-02-22T21:02:38.451Z,29.40
2023-02-22T21:05:09.708Z,30.15
2023-02-22T21:07:36.839Z,28.63
2023-02-22T21:10:06.285Z,28.23
2023-02-22T21:12:37.084Z,29.88
2023-02-22T21:15:04.394Z,28.80
2023-02-22T21:17:31.574Z,29.42
2023-02-22T21:19:59.600Z,29.83
2023-02-22T21:22:27.062Z,28.65
2023-02-22T21:24:54.264Z,27.75
2023-02-22T21:27:21.589Z,27.80
2023-02-22T21:29:48.820Z,29.20
2023-02-22T21:32:16.320Z,29.10
2023-02-22T21:34:43.491Z,30.85
2023-02-22T21:37:12.449Z,29.88
2023-02-22T21:39:39.591Z,28.23
2023-02-22T21:42:07.412Z,31.10
2023-02-22T21:44:34.624Z,31.70
2023-02-22T21:47:03.494Z,37.03
2023-02-22T21:49:30.742Z,37.45
2023-02-22T21:51:57.880Z,37.30
2023-02-22T21:54:25.346Z,35.05
2023-02-22T21:56:54.513Z,36.00
2023-02-22T21:59:25.172Z,35.15
2023-02-22T22:04:28.684Z,37.45
2023-02-22T22:06:57.268Z,37.67
2023-02-22T22:09:25.173Z,38.92
2023-02-22T22:11:54.024Z,35.88
2023-02-22T22:14:23.171Z,36.85
2023-02-22T22:16:51.338Z,37.58
2023-02-22T22:19:19.736Z,39.58
2023-02-22T22:21:47.122Z,40.58
2023-02-22T22:24:14.385Z,40.53
2023-02-22T22:26:44.074Z,39.08
2023-02-22T22:29:11.576Z,44.07
2023-02-22T22:31:39.380Z,42.83
2023-02-22T22:34:06.630Z,43.85
2023-02-22T22:36:34.761Z,44.28
2023-02-22T22:39:01.964Z,42.45
2023-02-22T22:41:29.353Z,49.63
2023-02-22T22:43:56.542Z,42.58
2023-02-22T22:46:23.926Z,43.97
2023-02-22T22:48:51.164Z,48.17
2023-02-22T22:51:26.200Z,44.78
2023-02-22T22:53:54.873Z,41.40
2023-02-22T22:56:29.573Z,46.60
2023-02-22T22:58:58.197Z,45.47
2023-02-22T23:01:27.249Z,52.97
2023-02-22T23:04:01.794Z,47.20
2023-02-22T23:06:31.012Z,51.30
2023-02-22T23:09:07.976Z,51.22
2023-02-22T23:11:35.169Z,57.60
2023-02-22T23:14:07.164Z,53.80
2023-02-22T23:16:41.069Z,55.10
2023-02-22T23:19:08.165Z,53.42
2023-02-22T23:21:43.075Z,53.08
2023-02-22T23:24:10.910Z,51.63
2023-02-22T23:26:45.087Z,52.05
2023-02-22T23:29:14.679Z,42.40
2023-02-22T23:31:46.327Z,41.08
2023-02-22T23:34:14.241Z,37.13
2023-02-22T23:36:44.459Z,40.40
2023-02-22T23:39:12.446Z,35.92
2023-02-22T23:41:39.634Z,36.25
2023-02-22T23:44:13.958Z,39.50
2023-02-22T23:46:41.253Z,34.60
2023-02-22T23:49:09.903Z,38.22
2023-02-22T23:51:45.121Z,34.88
2023-02-22T23:54:14.625Z,35.85
2023-02-22T23:56:56.180Z,38.90
2023-02-22T23:59:24.359Z,37.30
